Time;durP1;ratioP1;P1;durP2;ratioP2;P2;SDS_P1;SDS_P2;PMS_P1;PMS_P2;Temp;Humidity;BMP_temperature;BMP_pressure;BME280_temperature;BME280_humidity;BME280_pressure;Samples;Min_cycle;Max_cycle;Signal;HPM_P1;HPM_P2
2023/02/12 00:00:03;;;;;;;8.35;6.68;;;;;14.70;103629.00;;;;5050367;28;20214;-74
2023/02/12 00:02:31;;;;;;;11.50;7.80;;;;;14.70;103633.00;;;;5068972;28;20223;-74
2023/02/12 00:04:58;;;;;;;10.98;6.13;;;;;14.70;103638.00;;;;5049735;28;20207;-74
2023/02/12 00:07:26;;;;;;;8.70;6.35;;;;;14.70;103640.00;;;;5061114;28;20201;-74
2023/02/12 00:09:53;;;;;;;8.98;6.97;;;;;14.70;103638.00;;;;5069463;28;20206;-74
2023/02/12 00:12:20;;;;;;;12.23;7.25;;;;;14.70;103633.00;;;;5069674;28;20187;-74
2023/02/12 00:14:48;;;;;;;10.75;7.00;;;;;14.70;103637.00;;;;5064253;28;20233;-74
2023/02/12 00:17:15;;;;;;;12.98;7.97;;;;;14.70;103642.00;;;;5055787;28;20210;-74
2023/02/12 00:19:44;;;;;;;10.00;6.78;;;;;14.70;103632.00;;;;5050161;28;20207;-74
2023/02/12 00:22:11;;;;;;;10.32;6.70;;;;;14.70;103636.00;;;;5049694;28;20195;-74
2023/02/12 00:24:38;;;;;;;9.35;6.70;;;;;14.70;103634.00;;;;5050240;28;20208;-74
2023/02/12 00:27:06;;;;;;;7.38;5.85;;;;;14.70;103636.00;;;;5052806;28;20192;-74
2023/02/12 00:29:34;;;;;;;8.15;6.65;;;;;14.70;103633.00;;;;5062932;28;20191;-74
2023/02/12 00:32:01;;;;;;;9.48;6.80;;;;;14.70;103634.00;;;;5051177;28;20200;-74
2023/02/12 00:34:28;;;;;;;10.38;7.05;;;;;14.70;103630.00;;;;5050054;28;20230;-74
2023/02/12 00:36:57;;;;;;;9.23;7.03;;;;;14.70;103633.00;;;;5049515;28;20203;-74
2023/02/12 00:39:24;;;;;;;8.15;6.65;;;;;14.70;103640.00;;;;5067435;28;20203;-74
2023/02/12 00:41:52;;;;;;;8.63;6.93;;;;;14.70;103635.00;;;;5051501;28;20206;-74
2023/02/12 00:44:19;;;;;;;11.25;7.35;;;;;14.70;103635.00;;;;5062019;28;20201;-74
2023/02/12 00:46:46;;;;;;;12.93;8.00;;;;;14.70;103637.00;;;;5061146;28;20237;-74
2023/02/12 00:49:13;;;;;;;11.40;7.75;;;;;14.70;103637.00;;;;5054241;28;20208;-74
2023/02/12 00:51:41;;;;;;;8.60;6.85;;;;;14.60;103639.00;;;;5053210;28;20222;-74
2023/02/12 00:54:09;;;;;;;9.48;7.38;;;;;14.60;103636.00;;;;5049275;28;20246;-74
2023/02/12 00:56:37;;;;;;;10.13;7.63;;;;;14.60;103633.00;;;;5066927;28;20209;-74
2023/02/12 00:59:04;;;;;;;9.05;6.93;;;;;14.60;103635.00;;;;5059864;28;20199;-74
2023/02/12 01:01:31;;;;;;;9.32;6.93;;;;;14.60;103627.00;;;;5048431;28;20218;-74
2023/02/12 01:03:59;;;;;;;9.98;6.80;;;;;14.60;103633.00;;;;5051504;28;20203;-74
2023/02/12 01:06:26;;;;;;;10.02;6.70;;;;;14.60;103633.00;;;;5068747;28;20203;-74
2023/02/12 01:08:54;;;;;;;11.45;7.72;;;;;14.60;103633.00;;;;5066982;28;20202;-74
2023/02/12 01:11:22;;;;;;;8.55;6.63;;;;;14.60;103630.00;;;;5051021;28;20662;-74
2023/02/12 01:13:50;;;;;;;11.23;6.72;;;;;14.60;103640.00;;;;5048850;28;20226;-74
2023/02/12 01:16:19;;;;;;;8.90;6.68;;;;;14.60;103638.00;;;;5054069;28;20793;-74
2023/02/12 01:18:47;;;;;;;9.10;6.90;;;;;14.60;103631.00;;;;5068264;28;20198;-74
2023/02/12 01:21:17;;;;;;;10.48;6.75;;;;;14.60;103627.00;;;;5068550;28;20218;-74
2023/02/12 01:23:44;;;;;;;9.27;6.47;;;;;14.60;103630.00;;;;5054236;28;20204;-74
2023/02/12 01:26:13;;;;;;;11.13;8.10;;;;;14.60;103632.00;;;;5058315;28;20208;-74
2023/02/12 01:28:44;;;;;;;13.82;7.95;;;;;14.60;103629.00;;;;5068509;28;20588;-74
2023/02/12 01:31:13;;;;;;;9.38;7.07;;;;;14.60;103630.00;;;;5060332;28;20196;-74
2023/02/12 01:33:41;;;;;;;10.75;8.18;;;;;14.60;103625.00;;;;5051741;28;20243;-74
2023/02/12 01:36:09;;;;;;;11.75;7.25;;;;;14.60;103623.00;;;;5053418;28;20203;-74
2023/02/12 01:38:36;;;;;;;10.07;7.15;;;;;14.60;103625.00;;;;5051364;28;20204;-74
2023/02/12 01:41:05;;;;;;;12.98;7.70;;;;;14.60;103623.00;;;;5067816;28;20211;-74
2023/02/12 01:43:34;;;;;;;9.15;7.00;;;;;14.50;103634.00;;;;5066304;28;20680;-74
2023/02/12 01:46:04;;;;;;;9.85;7.30;;;;;14.50;103630.00;;;;5047429;28;20210;-74
2023/02/12 01:48:37;;;;;;;11.30;7.90;;;;;14.50;103633.00;;;;5055486;28;20204;-74
2023/02/12 01:51:05;;;;;;;11.95;8.38;;;;;14.50;103636.00;;;;5048483;28;20188;-74
2023/02/12 01:53:36;;;;;;;9.73;7.63;;;;;14.50;103633.00;;;;5047943;28;20227;-74
2023/02/12 01:56:04;;;;;;;9.98;7.13;;;;;14.50;103627.00;;;;5047569;28;20596;-74
2023/02/12 01:58:35;;;;;;;11.57;7.78;;;;;14.50;103628.00;;;;5048625;28;20392;-75
2023/02/12 02:01:07;;;;;;;13.32;7.95;;;;;14.50;103637.00;;;;5065742;28;20219;-74
2023/02/12 02:03:38;;;;;;;11.95;7.97;;;;;14.50;103631.00;;;;5064600;28;20203;-74
2023/02/12 02:06:10;;;;;;;10.23;7.35;;;;;14.40;103627.00;;;;5055028;28;20203;-74
2023/02/12 02:08:38;;;;;;;9.02;7.00;;;;;14.50;103630.00;;;;5062047;28;20199;-74
2023/02/12 02:14:31;;;;;;;10.20;7.57;;;;;14.50;103636.00;;;;5066614;28;20195;-74
2023/02/12 02:16:43;;;;;;;8.80;7.18;;;;;14.40;103630.00;;;;5071205;28;20579;-74
2023/02/12 02:19:24;;;;;;;10.70;7.75;;;;;14.30;103627.00;;;;5072582;28;20202;-74
2023/02/12 02:22:16;;;;;;;12.95;8.38;;;;;14.30;103622.00;;;;5071664;28;20199;-74
2023/02/12 02:25:14;;;;;;;10.05;7.70;;;;;14.30;103627.00;;;;5057411;28;20210;-74
2023/02/12 02:27:59;;;;;;;8.85;6.85;;;;;14.30;103626.00;;;;5070919;28;20195;-74
2023/02/12 02:30:34;;;;;;;10.45;8.02;;;;;14.30;103622.00;;;;5069809;28;20676;-74
2023/02/12 02:33:13;;;;;;;10.75;8.80;;;;;14.30;103623.00;;;;5061477;28;20556;-74
2023/02/12 02:35:46;;;;;;;9.80;7.72;;;;;14.30;103621.00;;;;5062855;28;20269;-74
2023/02/12 02:38:26;;;;;;;11.68;8.07;;;;;14.30;103627.00;;;;5056829;28;20740;-74
2023/02/12 02:41:01;;;;;;;10.35;7.75;;;;;14.30;103616.00;;;;5063217;28;20210;-74
2023/02/12 02:43:33;;;;;;;10.50;7.97;;;;;14.30;103624.00;;;;5051857;28;20211;-74
2023/02/12 02:46:07;;;;;;;12.38;8.95;;;;;14.30;103610.00;;;;5051431;28;20225;-75
2023/02/12 02:48:37;;;;;;;11.40;8.23;;;;;14.30;103606.00;;;;5051059;28;20914;-74
2023/02/12 02:51:09;;;;;;;11.40;8.95;;;;;14.30;103610.00;;;;5060359;28;20573;-74
2023/02/12 02:53:42;;;;;;;11.07;8.35;;;;;14.30;103610.00;;;;5062350;28;20203;-74
2023/02/12 02:56:14;;;;;;;12.57;8.75;;;;;14.30;103604.00;;;;5052567;28;20834;-74
2023/02/12 02:58:45;;;;;;;10.65;7.88;;;;;14.30;103610.00;;;;5050706;28;20287;-74
2023/02/12 03:01:18;;;;;;;10.73;8.15;;;;;14.30;103613.00;;;;5053816;28;20226;-74
2023/02/12 03:03:50;;;;;;;10.80;7.57;;;;;14.30;103615.00;;;;5050266;28;20735;-74
2023/02/12 03:06:25;;;;;;;12.25;8.70;;;;;14.30;103607.00;;;;5052964;28;20593;-75
2023/02/12 03:08:57;;;;;;;11.35;8.23;;;;;14.30;103611.00;;;;5063569;28;20202;-74
2023/02/12 03:11:27;;;;;;;10.80;8.27;;;;;14.30;103605.00;;;;5054962;28;20199;-74
2023/02/12 03:13:59;;;;;;;12.45;9.00;;;;;14.30;103603.00;;;;5060945;28;20227;-74
2023/02/12 03:16:30;;;;;;;11.60;8.55;;;;;14.30;103609.00;;;;5050079;28;20204;-74
2023/02/12 03:19:05;;;;;;;10.65;8.77;;;;;14.30;103604.00;;;;5050162;28;20278;-74
2023/02/12 03:21:37;;;;;;;12.50;9.35;;;;;14.30;103595.00;;;;5067131;28;20211;-74
2023/02/12 03:24:11;;;;;;;10.18;7.78;;;;;14.20;103601.00;;;;5054176;28;20192;-74
2023/02/12 03:26:44;;;;;;;10.38;8.63;;;;;14.30;103598.00;;;;5053910;28;20191;-74
2023/02/12 03:29:12;;;;;;;10.75;8.93;;;;;14.30;103605.00;;;;5051079;28;20211;-74
2023/02/12 03:31:56;;;;;;;10.68;8.35;;;;;14.20;103607.00;;;;5062307;28;20208;-74
2023/02/12 03:34:34;;;;;;;11.90;8.18;;;;;14.30;103605.00;;;;5051615;28;20223;-74
2023/02/12 03:37:06;;;;;;;12.50;8.48;;;;;14.30;103598.00;;;;5050975;28;20195;-74
2023/02/12 03:39:45;;;;;;;14.52;8.90;;;;;14.20;103603.00;;;;5063051;28;20207;-74
2023/02/12 03:42:18;;;;;;;10.82;8.70;;;;;14.20;103609.00;;;;5054797;28;20210;-74
2023/02/12 03:44:52;;;;;;;11.88;8.93;;;;;14.30;103608.00;;;;5061299;28;20584;-74
2023/02/12 03:47:33;;;;;;;11.52;8.80;;;;;14.20;103602.00;;;;5055852;28;20751;-74
2023/02/12 03:50:09;;;;;;;12.48;8.63;;;;;14.30;103609.00;;;;5055465;28;20215;-74
2023/02/12 03:52:37;;;;;;;10.68;8.98;;;;;14.30;103613.00;;;;5049148;28;20199;-74
2023/02/12 03:55:06;;;;;;;9.85;8.10;;;;;14.30;103614.00;;;;5050368;28;20219;-73
2023/02/12 03:57:39;;;;;;;11.82;8.70;;;;;14.30;103611.00;;;;5051278;28;20680;-74
2023/02/12 04:00:09;;;;;;;12.70;9.30;;;;;14.30;103611.00;;;;5061140;28;20206;-73
2023/02/12 04:02:38;;;;;;;12.75;8.80;;;;;14.20;103617.00;;;;5055326;28;20249;-74
2023/02/12 04:05:06;;;;;;;11.88;8.40;;;;;14.20;103615.00;;;;5060622;28;20194;-74
2023/02/12 04:07:35;;;;;;;13.00;9.18;;;;;14.20;103619.00;;;;5050192;28;20204;-74
2023/02/12 04:10:02;;;;;;;13.05;9.88;;;;;14.20;103617.00;;;;5052830;28;20204;-73
2023/02/12 04:12:40;;;;;;;14.23;9.35;;;;;14.10;103618.00;;;;5051124;28;20662;-73
2023/02/12 04:15:18;;;;;;;11.40;9.15;;;;;14.20;103616.00;;;;5068661;28;20284;-74
2023/02/12 04:17:51;;;;;;;11.88;9.52;;;;;14.20;103624.00;;;;5064791;28;20202;-74
2023/02/12 04:20:27;;;;;;;10.55;8.57;;;;;14.20;103622.00;;;;5067628;28;20613;-74
2023/02/12 04:23:02;;;;;;;12.95;9.60;;;;;14.20;103625.00;;;;5057476;28;20223;-74
2023/02/12 04:25:42;;;;;;;13.15;8.52;;;;;14.10;103630.00;;;;5062241;28;20202;-74
2023/02/12 04:28:17;;;;;;;11.98;8.98;;;;;14.20;103628.00;;;;5049216;28;20253;-74
2023/02/12 04:30:48;;;;;;;12.85;9.40;;;;;14.20;103628.00;;;;5065025;28;20191;-74
2023/02/12 04:33:21;;;;;;;11.77;9.10;;;;;14.20;103633.00;;;;5060044;28;20248;-74
2023/02/12 04:35:51;;;;;;;11.65;9.20;;;;;14.20;103638.00;;;;5068264;28;20222;-74
2023/02/12 04:38:23;;;;;;;12.10;9.77;;;;;14.20;103639.00;;;;5066927;28;20187;-74
2023/02/12 04:40:52;;;;;;;14.48;9.15;;;;;14.20;103638.00;;;;5068569;28;20198;-74
2023/02/12 04:43:28;;;;;;;11.10;8.95;;;;;14.10;103645.00;;;;5066077;28;20209;-74
2023/02/12 04:45:55;;;;;;;11.88;8.93;;;;;14.20;103633.00;;;;5065395;28;20234;-74
2023/02/12 04:48:24;;;;;;;11.88;8.88;;;;;14.20;103644.00;;;;5069121;28;20190;-74
2023/02/12 04:50:51;;;;;;;12.95;8.80;;;;;14.20;103641.00;;;;5055795;28;20200;-74
2023/02/12 04:53:19;;;;;;;11.30;9.00;;;;;14.20;103641.00;;;;5049167;28;20200;-74
2023/02/12 04:55:48;;;;;;;9.57;8.57;;;;;14.20;103643.00;;;;5049560;28;20705;-74
2023/02/12 04:58:15;;;;;;;13.30;9.00;;;;;14.20;103654.00;;;;5053883;28;20195;-74
2023/02/12 05:00:42;;;;;;;12.35;9.18;;;;;14.20;103646.00;;;;5049476;28;20222;-74
2023/02/12 05:03:10;;;;;;;11.35;8.85;;;;;14.20;103646.00;;;;5049069;28;20192;-74
2023/02/12 05:05:38;;;;;;;13.32;9.10;;;;;14.20;103642.00;;;;5049795;28;20202;-74
2023/02/12 05:08:06;;;;;;;11.63;9.25;;;;;14.20;103638.00;;;;5052736;28;20203;-74
2023/02/12 05:10:33;;;;;;;13.40;9.85;;;;;14.20;103645.00;;;;5048125;28;20203;-74
2023/02/12 05:13:00;;;;;;;11.18;8.85;;;;;14.20;103647.00;;;;5049882;28;20199;-74
2023/02/12 05:15:27;;;;;;;10.48;8.52;;;;;14.20;103644.00;;;;5049056;28;20223;-74
2023/02/12 05:17:55;;;;;;;11.18;8.95;;;;;14.20;103653.00;;;;5048355;28;20196;-74
2023/02/12 05:20:22;;;;;;;11.38;9.27;;;;;14.20;103650.00;;;;5048830;28;20206;-74
2023/02/12 05:22:53;;;;;;;12.63;9.13;;;;;14.20;103648.00;;;;5061608;28;20195;-74
2023/02/12 05:25:21;;;;;;;11.45;8.45;;;;;14.20;103646.00;;;;5048875;28;20590;-74
2023/02/12 05:27:48;;;;;;;11.98;8.43;;;;;14.20;103646.00;;;;5053550;28;20195;-74
2023/02/12 05:30:16;;;;;;;14.63;8.82;;;;;14.20;103651.00;;;;5053863;28;20550;-74
2023/02/12 05:32:43;;;;;;;12.88;9.07;;;;;14.20;103649.00;;;;5048117;28;20199;-74
2023/02/12 05:35:10;;;;;;;11.07;8.32;;;;;14.20;103653.00;;;;5048310;28;20234;-74
2023/02/12 05:37:37;;;;;;;11.23;9.02;;;;;14.20;103667.00;;;;5048834;28;20194;-74
2023/02/12 05:40:08;;;;;;;13.35;9.07;;;;;14.20;103657.00;;;;5049231;28;20191;-74
2023/02/12 05:42:35;;;;;;;9.82;8.43;;;;;14.20;103658.00;;;;5048032;28;20199;-74
2023/02/12 05:45:02;;;;;;;9.98;8.25;;;;;14.20;103654.00;;;;5047497;28;20195;-74
2023/02/12 05:47:29;;;;;;;11.70;9.07;;;;;14.20;103655.00;;;;5051063;28;20215;-74
2023/02/12 05:49:57;;;;;;;11.75;9.60;;;;;14.20;103651.00;;;;5067613;28;20188;-74
2023/02/12 05:52:24;;;;;;;10.77;8.23;;;;;14.20;103660.00;;;;5055478;28;20200;-74
2023/02/12 05:54:51;;;;;;;10.98;8.32;;;;;14.30;103654.00;;;;5051444;28;20215;-74
2023/02/12 05:57:20;;;;;;;11.77;9.02;;;;;14.20;103655.00;;;;5051068;28;20207;-74
2023/02/12 05:59:47;;;;;;;11.82;8.90;;;;;14.30;103650.00;;;;5060474;28;20214;-74
2023/02/12 06:02:14;;;;;;;10.18;8.10;;;;;14.20;103653.00;;;;5047418;28;20212;-74
2023/02/12 06:04:42;;;;;;;11.32;8.73;;;;;14.20;103654.00;;;;5061650;28;20245;-74
2023/02/12 06:07:09;;;;;;;10.85;7.97;;;;;14.20;103657.00;;;;5062271;28;20198;-74
2023/02/12 06:09:36;;;;;;;11.48;8.52;;;;;14.20;103646.00;;;;5065709;28;20205;-74
2023/02/12 06:12:04;;;;;;;11.18;8.73;;;;;14.20;103652.00;;;;5059862;28;20603;-74
2023/02/12 06:14:33;;;;;;;10.18;7.72;;;;;14.20;103652.00;;;;5052818;28;20215;-74
2023/02/12 06:17:00;;;;;;;11.20;8.57;;;;;14.20;103650.00;;;;5048509;28;20214;-74
2023/02/12 06:19:27;;;;;;;10.55;8.02;;;;;14.20;103657.00;;;;5048225;28;20212;-74
2023/02/12 06:21:55;;;;;;;12.50;9.27;;;;;14.20;103665.00;;;;5052883;28;20191;-74
2023/02/12 06:24:22;;;;;;;10.10;7.93;;;;;14.30;103658.00;;;;5067694;28;20207;-74
2023/02/12 06:26:51;;;;;;;10.45;7.93;;;;;14.20;103651.00;;;;5067840;28;20202;-74
2023/02/12 06:29:18;;;;;;;10.23;8.18;;;;;14.30;103654.00;;;;5066275;28;20624;-74
2023/02/12 06:31:47;;;;;;;10.52;7.75;;;;;14.20;103659.00;;;;5053995;28;20210;-74
2023/02/12 06:34:16;;;;;;;9.25;7.68;;;;;14.30;103659.00;;;;5051771;28;20203;-75
2023/02/12 06:36:45;;;;;;;10.32;7.53;;;;;14.30;103667.00;;;;5052490;28;20228;-74
2023/02/12 06:39:14;;;;;;;9.93;7.53;;;;;14.30;103661.00;;;;5064182;28;20202;-74
2023/02/12 06:41:42;;;;;;;9.18;7.88;;;;;14.30;103669.00;;;;5068380;28;20192;-74
2023/02/12 06:44:11;;;;;;;10.52;8.23;;;;;14.30;103670.00;;;;5064377;28;20191;-75
2023/02/12 06:46:39;;;;;;;11.13;8.00;;;;;14.30;103675.00;;;;5049685;28;20321;-75
2023/02/12 06:49:07;;;;;;;10.75;8.43;;;;;14.30;103674.00;;;;5057291;28;20211;-75
2023/02/12 06:51:37;;;;;;;11.95;8.55;;;;;14.30;103681.00;;;;5067077;28;20668;-75
2023/02/12 06:54:04;;;;;;;9.45;7.70;;;;;14.30;103675.00;;;;5057926;28;20257;-75
2023/02/12 06:56:31;;;;;;;10.70;8.15;;;;;14.30;103679.00;;;;5055768;28;20582;-75
2023/02/12 06:59:00;;;;;;;11.20;8.55;;;;;14.30;103668.00;;;;5048681;28;20199;-75
2023/02/12 07:01:29;;;;;;;10.20;8.23;;;;;14.30;103678.00;;;;5050764;28;20569;-74
2023/02/12 07:03:58;;;;;;;10.95;8.68;;;;;14.30;103675.00;;;;5051175;28;20200;-74
2023/02/12 07:06:28;;;;;;;12.10;8.60;;;;;14.30;103679.00;;;;5065424;28;20205;-74
2023/02/12 07:08:56;;;;;;;10.25;8.10;;;;;14.30;103674.00;;;;5069647;28;20679;-74
2023/02/12 07:11:24;;;;;;;10.70;8.70;;;;;14.30;103684.00;;;;5070657;28;20213;-75
2023/02/12 07:13:52;;;;;;;10.65;8.70;;;;;14.30;103693.00;;;;5071199;28;20191;-75
2023/02/12 07:16:20;;;;;;;10.30;7.72;;;;;14.30;103693.00;;;;5056077;28;20219;-75
2023/02/12 07:18:47;;;;;;;10.63;8.30;;;;;14.30;103686.00;;;;5065723;28;20203;-75
2023/02/12 07:21:16;;;;;;;12.13;9.10;;;;;14.30;103696.00;;;;5071005;28;20195;-76
2023/02/12 07:23:47;;;;;;;12.35;9.20;;;;;14.30;103699.00;;;;5062718;28;20195;-74
2023/02/12 07:26:16;;;;;;;12.15;9.63;;;;;14.30;103697.00;;;;5050962;28;20257;-74
2023/02/12 07:28:44;;;;;;;14.80;9.27;;;;;14.30;103706.00;;;;5051474;28;20239;-74
2023/02/12 07:31:14;;;;;;;13.45;9.45;;;;;14.30;103707.00;;;;5054170;28;20212;-75
2023/02/12 07:33:42;;;;;;;15.68;9.73;;;;;14.30;103703.00;;;;5061476;28;20562;-74
2023/02/12 07:36:11;;;;;;;12.30;9.63;;;;;14.30;103706.00;;;;5069359;28;20250;-74
2023/02/12 07:38:39;;;;;;;11.70;9.07;;;;;14.30;103704.00;;;;5059007;28;20196;-73
2023/02/12 07:41:11;;;;;;;11.75;9.30;;;;;14.30;103710.00;;;;5051463;28;20203;-74
2023/02/12 07:43:38;;;;;;;12.40;9.27;;;;;14.30;103706.00;;;;5061453;28;20272;-74
2023/02/12 07:46:11;;;;;;;12.05;8.40;;;;;14.30;103709.00;;;;5054878;28;20270;-74
2023/02/12 07:48:39;;;;;;;11.57;8.38;;;;;14.30;103713.00;;;;5051352;28;20199;-74
2023/02/12 07:51:08;;;;;;;11.02;8.57;;;;;14.40;103716.00;;;;5055750;28;20580;-74
2023/02/12 07:53:36;;;;;;;14.88;10.20;;;;;14.40;103719.00;;;;5051024;28;20200;-74
2023/02/12 07:56:10;;;;;;;13.35;9.13;;;;;14.30;103712.00;;;;5051718;28;20685;-74
2023/02/12 07:58:38;;;;;;;12.63;9.20;;;;;14.40;103715.00;;;;5049882;28;20286;-75
2023/02/12 08:01:14;;;;;;;13.05;9.43;;;;;14.30;103731.00;;;;5047513;28;20212;-74
2023/02/12 08:03:41;;;;;;;11.98;9.65;;;;;14.40;103735.00;;;;5051996;28;20196;-74
2023/02/12 08:06:11;;;;;;;12.70;9.93;;;;;14.40;103730.00;;;;5056637;28;20572;-75
2023/02/12 08:08:38;;;;;;;13.30;9.77;;;;;14.40;103728.00;;;;5052290;28;20669;-74
2023/02/12 08:11:08;;;;;;;14.15;10.48;;;;;14.40;103723.00;;;;5047802;28;20206;-74
2023/02/12 08:13:36;;;;;;;12.30;10.05;;;;;14.40;103736.00;;;;5052254;28;20580;-74
2023/02/12 08:16:05;;;;;;;11.60;10.05;;;;;14.40;103734.00;;;;5049906;28;20289;-74
2023/02/12 08:18:33;;;;;;;12.35;9.90;;;;;14.50;103739.00;;;;5056529;28;20202;-74
2023/02/12 08:21:07;;;;;;;12.32;9.32;;;;;14.40;103743.00;;;;5054024;28;20210;-74
2023/02/12 08:23:34;;;;;;;12.32;9.18;;;;;14.50;103741.00;;;;5057092;28;20195;-74
2023/02/12 08:26:12;;;;;;;10.00;8.52;;;;;14.40;103738.00;;;;5054784;28;20199;-74
2023/02/12 08:28:43;;;;;;;11.65;8.98;;;;;14.50;103743.00;;;;5050808;28;20195;-74
2023/02/12 08:31:14;;;;;;;12.25;9.32;;;;;14.50;103739.00;;;;5056842;28;20556;-74
2023/02/12 08:33:41;;;;;;;13.77;9.73;;;;;14.50;103756.00;;;;5053637;28;20191;-75
2023/02/12 08:36:11;;;;;;;13.75;10.13;;;;;14.50;103753.00;;;;5051592;28;20223;-75
2023/02/12 08:38:39;;;;;;;11.77;8.93;;;;;14.60;103758.00;;;;5059915;28;20545;-74
2023/02/12 08:41:10;;;;;;;11.38;9.15;;;;;14.50;103754.00;;;;5061936;28;20195;-74
2023/02/12 08:43:37;;;;;;;14.43;9.65;;;;;14.60;103762.00;;;;5066728;28;20192;-75
2023/02/12 08:46:07;;;;;;;16.70;10.98;;;;;14.60;103760.00;;;;5062205;28;20374;-75
2023/02/12 08:48:34;;;;;;;13.27;9.70;;;;;14.60;103766.00;;;;5057252;28;20200;-75
2023/02/12 08:51:09;;;;;;;11.77;9.27;;;;;14.60;103764.00;;;;5055751;28;20202;-73
2023/02/12 08:53:36;;;;;;;14.43;10.20;;;;;14.60;103764.00;;;;5061782;28;20878;-74
2023/02/12 08:56:04;;;;;;;11.13;9.02;;;;;14.60;103765.00;;;;5048858;28;20223;-73
2023/02/12 08:58:34;;;;;;;13.07;10.00;;;;;14.60;103762.00;;;;5048942;28;20198;-73
2023/02/12 09:01:02;;;;;;;12.80;10.20;;;;;14.70;103765.00;;;;5050599;28;20222;-74
2023/02/12 09:03:29;;;;;;;13.32;10.05;;;;;14.70;103771.00;;;;5056002;28;20566;-74
2023/02/12 09:05:56;;;;;;;13.57;10.02;;;;;14.70;103764.00;;;;5064094;28;20825;-74
2023/02/12 09:08:24;;;;;;;14.63;10.32;;;;;14.70;103769.00;;;;5056763;28;20196;-74
2023/02/12 09:10:51;;;;;;;16.65;10.23;;;;;14.80;103767.00;;;;5056153;28;20195;-74
2023/02/12 09:13:18;;;;;;;11.98;9.73;;;;;14.80;103772.00;;;;5052705;28;20203;-74
2023/02/12 09:15:47;;;;;;;13.50;10.38;;;;;14.80;103769.00;;;;5053190;28;20224;-73
2023/02/12 09:18:16;;;;;;;14.30;10.30;;;;;14.80;103769.00;;;;5046709;28;20195;-73
2023/02/12 09:20:44;;;;;;;13.10;9.85;;;;;14.80;103768.00;;;;5052513;28;21150;-74
2023/02/12 09:23:13;;;;;;;14.27;11.35;;;;;14.80;103780.00;;;;5053746;28;20614;-74
2023/02/12 09:25:41;;;;;;;14.60;10.45;;;;;14.90;103777.00;;;;5054800;28;20195;-73
2023/02/12 09:28:09;;;;;;;16.27;10.50;;;;;14.90;103779.00;;;;5051316;28;20211;-74
2023/02/12 09:30:38;;;;;;;11.65;9.55;;;;;14.90;103781.00;;;;5056276;28;20202;-73
2023/02/12 09:33:07;;;;;;;13.02;9.57;;;;;14.90;103780.00;;;;5063735;28;20197;-74
2023/02/12 09:35:35;;;;;;;12.90;10.32;;;;;15.00;103776.00;;;;5056608;28;20190;-74
2023/02/12 09:38:03;;;;;;;12.23;9.63;;;;;15.00;103766.00;;;;5054818;28;20195;-74
2023/02/12 09:40:37;;;;;;;13.02;10.13;;;;;15.00;103770.00;;;;5055460;28;20665;-74
2023/02/12 09:43:17;;;;;;;12.07;9.93;;;;;15.00;103778.00;;;;5053641;28;20229;-74
2023/02/12 09:45:52;;;;;;;15.05;10.93;;;;;15.00;103779.00;;;;5050585;28;20203;-75
2023/02/12 09:48:42;;;;;;;14.45;10.20;;;;;15.00;103781.00;;;;5055124;28;20574;-74
2023/02/12 09:51:10;;;;;;;15.80;10.50;;;;;15.10;103776.00;;;;5060141;28;20206;-74
2023/02/12 09:53:41;;;;;;;12.40;9.95;;;;;15.10;103778.00;;;;5056339;28;20196;-75
2023/02/12 09:56:17;;;;;;;13.65;10.27;;;;;15.10;103776.00;;;;5058583;28;20686;-75
2023/02/12 09:58:48;;;;;;;11.93;9.90;;;;;15.10;103781.00;;;;5053360;28;20206;-75
2023/02/12 10:01:17;;;;;;;15.05;10.60;;;;;15.20;103782.00;;;;5053376;28;20218;-75
2023/02/12 10:03:48;;;;;;;13.57;10.35;;;;;15.20;103780.00;;;;5062426;28;20661;-75
2023/02/12 10:06:19;;;;;;;14.82;9.85;;;;;15.20;103786.00;;;;5054840;28;20199;-74
2023/02/12 10:09:14;;;;;;;13.88;9.57;;;;;15.10;103778.00;;;;5055846;28;20664;-75
2023/02/12 10:11:51;;;;;;;13.93;9.55;;;;;15.20;103780.00;;;;5054497;28;20200;-75
2023/02/12 10:14:36;;;;;;;13.10;10.50;;;;;15.20;103778.00;;;;5067677;28;20199;-74
2023/02/12 10:17:13;;;;;;;12.60;9.52;;;;;15.20;103779.00;;;;5055477;28;20222;-74
2023/02/12 10:20:14;;;;;;;13.73;10.57;;;;;15.20;103777.00;;;;5062151;28;20199;-74
2023/02/12 10:22:49;;;;;;;12.77;8.95;;;;;15.30;103777.00;;;;5040754;28;20254;-74
2023/02/12 10:25:24;;;;;;;14.48;10.90;;;;;15.30;103781.00;;;;5058012;28;20600;-74
2023/02/12 10:27:53;;;;;;;12.73;9.88;;;;;15.40;103781.00;;;;5059083;28;20210;-74
2023/02/12 10:30:26;;;;;;;12.02;9.57;;;;;15.40;103788.00;;;;5053203;28;20203;-74
2023/02/12 10:32:58;;;;;;;14.68;10.05;;;;;15.40;103780.00;;;;5052931;28;20199;-75
2023/02/12 10:35:27;;;;;;;12.65;9.90;;;;;15.40;103783.00;;;;5056773;28;20199;-75
2023/02/12 10:38:00;;;;;;;10.90;8.98;;;;;15.40;103779.00;;;;5053678;28;20216;-75
2023/02/12 10:40:32;;;;;;;13.73;9.50;;;;;15.50;103783.00;;;;5063274;28;20195;-75
2023/02/12 10:43:01;;;;;;;13.48;9.95;;;;;15.50;103788.00;;;;5052251;28;20202;-75
2023/02/12 10:45:32;;;;;;;14.32;9.80;;;;;15.50;103787.00;;;;5054976;28;20191;-75
2023/02/12 10:48:09;;;;;;;12.68;10.05;;;;;15.50;103786.00;;;;5054612;28;20242;-75
2023/02/12 10:51:03;;;;;;;11.25;9.10;;;;;15.50;103783.00;;;;5050348;28;20214;-75
2023/02/12 10:53:34;;;;;;;13.68;9.32;;;;;15.50;103782.00;;;;5063746;28;20199;-75
2023/02/12 10:56:13;;;;;;;12.35;9.38;;;;;15.50;103782.00;;;;5056034;28;20204;-75
2023/02/12 10:58:43;;;;;;;12.75;9.57;;;;;15.60;103778.00;;;;5050768;28;20789;-75
2023/02/12 11:01:17;;;;;;;12.65;9.75;;;;;15.60;103780.00;;;;5064799;28;20211;-75
2023/02/12 11:03:44;;;;;;;12.20;9.52;;;;;15.70;103776.00;;;;5053869;28;20195;-75
2023/02/12 11:06:15;;;;;;;13.52;9.73;;;;;15.70;103784.00;;;;5057032;28;20203;-75
2023/02/12 11:08:43;;;;;;;13.63;10.10;;;;;15.70;103789.00;;;;5052197;28;20653;-75
2023/02/12 11:11:13;;;;;;;13.10;8.98;;;;;15.70;103783.00;;;;5051077;28;20196;-75
2023/02/12 11:13:45;;;;;;;13.02;9.90;;;;;15.80;103788.00;;;;5052884;28;20195;-75
2023/02/12 11:16:13;;;;;;;14.10;9.48;;;;;15.80;103787.00;;;;5052403;28;20200;-75
2023/02/12 11:18:41;;;;;;;11.75;9.50;;;;;15.80;103784.00;;;;5053207;28;20196;-75
2023/02/12 11:21:11;;;;;;;12.00;8.88;;;;;15.90;103782.00;;;;5053214;28;20226;-75
2023/02/12 11:23:41;;;;;;;11.30;9.40;;;;;15.90;103771.00;;;;5060695;28;20208;-75
2023/02/12 11:26:27;;;;;;;14.15;9.60;;;;;15.80;103772.00;;;;5056825;28;20192;-74
2023/02/12 11:28:56;;;;;;;11.60;9.20;;;;;15.90;103774.00;;;;5053691;28;20688;-76
2023/02/12 11:31:25;;;;;;;12.50;8.98;;;;;15.90;103767.00;;;;5058378;28;20199;-75
2023/02/12 11:34:09;;;;;;;11.50;8.77;;;;;15.80;103769.00;;;;5051523;28;20398;-75
2023/02/12 11:36:42;;;;;;;11.18;8.05;;;;;15.90;103771.00;;;;5055523;28;20211;-75
2023/02/12 11:39:20;;;;;;;14.30;9.45;;;;;15.90;103768.00;;;;5061061;28;20204;-75
2023/02/12 11:41:52;;;;;;;12.20;9.50;;;;;16.00;103764.00;;;;5052657;28;20764;-75
2023/02/12 11:44:22;;;;;;;12.75;9.38;;;;;16.00;103773.00;;;;5065305;28;20222;-75
2023/02/12 11:46:54;;;;;;;13.90;10.20;;;;;16.00;103768.00;;;;5052401;28;20223;-75
2023/02/12 11:49:25;;;;;;;11.73;8.43;;;;;16.00;103765.00;;;;5052651;28;21028;-75
2023/02/12 11:51:53;;;;;;;11.10;8.60;;;;;16.10;103771.00;;;;5050814;28;20195;-75
2023/02/12 11:54:25;;;;;;;11.18;8.95;;;;;16.10;103764.00;;;;5058027;28;20199;-75
2023/02/12 11:56:54;;;;;;;18.10;9.38;;;;;16.10;103765.00;;;;5069781;28;20254;-75
2023/02/12 11:59:34;;;;;;;13.50;9.30;;;;;16.00;103770.00;;;;5064531;28;20188;-75
2023/02/12 12:02:13;;;;;;;10.18;8.25;;;;;16.10;103762.00;;;;5055466;28;20231;-75
2023/02/12 12:04:42;;;;;;;11.75;9.10;;;;;16.10;103766.00;;;;5049633;28;20206;-75
2023/02/12 12:07:16;;;;;;;11.73;9.32;;;;;16.10;103760.00;;;;5050076;28;20211;-75
2023/02/12 12:09:49;;;;;;;14.73;9.45;;;;;16.10;103756.00;;;;5062814;28;20230;-75
2023/02/12 12:12:21;;;;;;;11.52;8.13;;;;;16.10;103759.00;;;;5061661;28;20199;-73
2023/02/12 12:20:36;;;;;;;12.43;9.10;;;;;16.20;103749.00;;;;5070007;28;20257;-74
2023/02/12 12:23:10;;;;;;;12.23;10.38;;;;;16.20;103743.00;;;;5063770;28;20196;-74